Aeroporto :
LOGIN :

Iscrizione | Disclaimer

   EN    FR    IT 

 










Sommario :    VFR   VFR Marginale   IFR   IFR Intensivo   IFR Molto Intensivo
Visibilità : 
Base nubi : 
>= 8 km
>= 3000ft
5 / 8 km
1000 / 3000 ft
1500m / 5 km
500 / 1000 ft
800 / 1500m
200 / 500 ft
< 800m
< 200 ft
Simboli :   Temporali  Nebbia  Neve Forte  Precipitazioni Forti  Vento > 20 kt
SIGMETs :   Varie  Temporali  Ghiacco  Turbolenza  Onda orograficha  Ceneri Vulcaniche







- Altitudine del aeroporto : 13 ft
- Codice IATA : SNR
- Carte del aeroporto


LFRZ - St-Nazaire

ULTIMO METAR :
  • 181600Z AUTO 20006KT CAVOK 18/10 Q1016 NOSIG

METARs OBSOLETI :
  • 181530Z AUTO 20007KT CAVOK 19/11 Q1016 NOSIG
  • 181500Z AUTO 20008KT 9999 4900 NSC 19/12 Q1016 NOSIG
  • 181430Z AUTO 21009KT 8000 NSC 19/11 Q1016 NOSIG
  • 181400Z AUTO 21010KT 9999 3400 NSC 18/11 Q1016 TEMPO 32006KT
  • 181330Z AUTO 21009KT 9999 4000 NSC 18/11 Q1016 NOSIG

TAF AMD TAF LFRZ
Valido dal 18 a 14 ore il 19 a 12 ore UTC


181428Z 1814/1912 08010KT CAVOK
TEMPO 1814/1820 VRB08KT
Nessun NOTAM noto per questo aeroporto.



MetMap, La meteo Aeronautica in un colpo d'occhio ! - Copyright ORBIFLY Dicembre 2007 - Disclaimer

ORBIFLY MET'MAP TEAM :

Programmazione e sviluppo : Alexandra Zaïnal
Concezione e sviluppo : Baudouin d'Aumeries
Co-Programmazione e sviluppo : Marc-Olivier Méhu
Supporto tecnico e logistico : Manuel Goepfert
Aiuto per la traduzione : Arnaldo La Scala

Contatto : metmap@orbifly.com




FONTI E CREDITI :

   NOAA